createdAt,value
2023-04-09T00:01:14.968Z,100.00
2023-04-09T00:03:42.655Z,100.00
2023-04-09T00:06:12.385Z,100.00
2023-04-09T00:08:40.093Z,100.00
2023-04-09T00:11:09.143Z,100.00
2023-04-09T00:13:39.666Z,100.00
2023-04-09T00:16:07.876Z,100.00
2023-04-09T00:18:35.756Z,100.00
2023-04-09T00:21:03.551Z,100.00
2023-04-09T00:23:31.384Z,100.00
2023-04-09T00:25:59.040Z,100.00
2023-04-09T00:28:28.101Z,100.00
2023-04-09T00:30:55.707Z,100.00
2023-04-09T00:33:23.398Z,100.00
2023-04-09T00:35:51.267Z,100.00
2023-04-09T00:38:19.024Z,100.00
2023-04-09T00:40:49.910Z,100.00
2023-04-09T00:43:17.983Z,100.00
2023-04-09T00:45:47.138Z,100.00
2023-04-09T00:48:15.165Z,100.00
2023-04-09T00:50:43.356Z,100.00
2023-04-09T00:53:11.549Z,100.00
2023-04-09T00:55:41.015Z,100.00
2023-04-09T00:58:08.885Z,100.00
2023-04-09T01:00:36.496Z,100.00
2023-04-09T01:03:06.586Z,100.00
2023-04-09T01:05:38.781Z,100.00
2023-04-09T01:08:12.260Z,100.00
2023-04-09T01:10:42.476Z,100.00
2023-04-09T01:13:12.934Z,100.00
2023-04-09T01:15:43.979Z,100.00
2023-04-09T01:18:15.968Z,100.00
2023-04-09T01:20:45.063Z,100.00
2023-04-09T01:23:17.462Z,100.00
2023-04-09T01:25:48.413Z,100.00
2023-04-09T01:28:18.392Z,100.00
2023-04-09T01:30:49.201Z,100.00
2023-04-09T01:33:18.108Z,100.00
2023-04-09T01:35:47.036Z,100.00
2023-04-09T01:38:15.615Z,100.00
2023-04-09T01:40:43.868Z,100.00
2023-04-09T01:43:12.441Z,100.00
2023-04-09T01:45:42.007Z,100.00
2023-04-09T01:48:10.302Z,100.00
2023-04-09T01:50:38.558Z,100.00
2023-04-09T01:53:06.261Z,100.00
2023-04-09T01:55:33.969Z,100.00
2023-04-09T01:58:01.620Z,100.00
2023-04-09T02:00:36.317Z,100.00
2023-04-09T02:03:08.594Z,100.00
2023-04-09T02:05:38.705Z,100.00
2023-04-09T02:08:07.816Z,100.00
2023-04-09T02:10:36.644Z,100.00
2023-04-09T02:13:06.270Z,100.00
2023-04-09T02:15:35.607Z,100.00
2023-04-09T02:18:03.417Z,100.00
2023-04-09T02:20:32.424Z,100.00
2023-04-09T02:23:00.426Z,100.00
2023-04-09T02:25:28.284Z,100.00
2023-04-09T02:27:55.939Z,100.00
2023-04-09T02:30:23.703Z,100.00
2023-04-09T02:32:51.424Z,100.00
2023-04-09T02:35:19.274Z,100.00
2023-04-09T02:37:48.252Z,100.00
2023-04-09T02:40:15.974Z,100.00
2023-04-09T02:42:43.587Z,100.00
2023-04-09T02:45:11.738Z,100.00
2023-04-09T02:47:39.375Z,100.00
2023-04-09T02:50:07.732Z,100.00
2023-04-09T02:52:35.592Z,100.00
2023-04-09T02:55:04.918Z,100.00
2023-04-09T02:57:33.776Z,100.00
2023-04-09T03:00:01.516Z,100.00
2023-04-09T03:02:29.419Z,100.00
2023-04-09T03:04:57.205Z,100.00
2023-04-09T03:07:24.816Z,100.00
2023-04-09T03:09:52.433Z,100.00
2023-04-09T03:12:21.564Z,100.00
2023-04-09T03:14:49.204Z,100.00
2023-04-09T03:17:16.902Z,100.00
2023-04-09T03:19:44.614Z,100.00
2023-04-09T03:22:12.244Z,100.00
2023-04-09T03:24:39.965Z,100.00
2023-04-09T03:27:07.643Z,100.00
2023-04-09T03:29:36.656Z,100.00
2023-04-09T03:32:04.371Z,100.00
2023-04-09T03:34:32.031Z,100.00
2023-04-09T03:36:59.788Z,100.00
2023-04-09T03:39:30.797Z,100.00
2023-04-09T03:41:59.241Z,100.00
2023-04-09T03:44:26.928Z,100.00
2023-04-09T03:46:56.035Z,100.00
2023-04-09T03:49:23.832Z,100.00
2023-04-09T03:51:51.500Z,100.00
2023-04-09T03:54:19.198Z,100.00
2023-04-09T03:56:46.955Z,100.00
2023-04-09T03:59:14.589Z,100.00
2023-04-09T04:01:42.249Z,100.00
2023-04-09T04:04:11.964Z,100.00
2023-04-09T04:06:39.662Z,100.00
2023-04-09T04:09:07.344Z,100.00
2023-04-09T04:11:34.989Z,100.00
2023-04-09T04:14:02.649Z,100.00
2023-04-09T04:16:30.319Z,100.00
2023-04-09T04:18:58.026Z,100.00
2023-04-09T04:21:27.235Z,100.00
2023-04-09T04:23:54.948Z,100.00
2023-04-09T04:26:22.661Z,100.00
2023-04-09T04:28:50.546Z,100.00
2023-04-09T04:31:18.504Z,100.00
2023-04-09T04:33:48.878Z,100.00
2023-04-09T04:36:16.620Z,100.00
2023-04-09T04:38:45.665Z,100.00
2023-04-09T04:41:13.343Z,100.00
2023-04-09T04:43:42.284Z,100.00
2023-04-09T04:46:09.973Z,100.00
2023-04-09T04:48:37.731Z,100.00
2023-04-09T04:51:05.575Z,100.00
2023-04-09T04:53:33.261Z,100.00
2023-04-09T04:56:02.313Z,100.00
2023-04-09T04:58:30.853Z,100.00
2023-04-09T05:00:58.498Z,100.00
2023-04-09T05:03:27.613Z,100.00
2023-04-09T05:05:55.408Z,100.00
2023-04-09T05:08:23.161Z,100.00
2023-04-09T05:10:51.362Z,100.00
2023-04-09T05:13:20.426Z,100.00
2023-04-09T05:15:48.149Z,100.00
2023-04-09T05:18:15.856Z,100.00
2023-04-09T05:20:43.462Z,100.00
2023-04-09T05:23:12.500Z,100.00
2023-04-09T05:25:40.280Z,100.00
2023-04-09T05:28:08.184Z,100.00
2023-04-09T05:30:37.287Z,100.00
2023-04-09T05:33:05.110Z,100.00
2023-04-09T05:35:32.861Z,100.00
2023-04-09T05:38:00.597Z,100.00
2023-04-09T05:40:28.237Z,100.00
2023-04-09T05:42:56.111Z,100.00
2023-04-09T05:45:23.831Z,100.00
2023-04-09T05:47:52.891Z,100.00
2023-04-09T05:50:20.562Z,100.00
2023-04-09T05:52:48.205Z,100.00
2023-04-09T05:55:16.017Z,100.00
2023-04-09T05:57:45.409Z,100.00
2023-04-09T06:00:13.591Z,100.00
2023-04-09T06:02:41.307Z,100.00
2023-04-09T06:05:11.265Z,100.00
2023-04-09T06:07:38.929Z,100.00
2023-04-09T06:10:07.247Z,98.83
2023-04-09T06:12:35.317Z,94.91
2023-04-09T06:15:03.668Z,94.32
2023-04-09T06:17:31.357Z,91.70
2023-04-09T06:19:59.078Z,92.00
2023-04-09T06:22:28.122Z,89.29
2023-04-09T06:24:55.828Z,90.14
2023-04-09T06:27:23.473Z,89.83
2023-04-09T06:29:51.151Z,87.63
2023-04-09T06:32:18.867Z,88.52
2023-04-09T06:34:46.746Z,88.90
2023-04-09T06:37:14.450Z,88.97
2023-04-09T06:39:47.713Z,90.51
2023-04-09T06:42:21.825Z,89.62
2023-04-09T06:44:49.464Z,88.85
2023-04-09T06:47:17.190Z,87.64
2023-04-09T06:49:44.874Z,89.45
2023-04-09T06:52:12.570Z,92.57
2023-04-09T06:54:40.267Z,91.06
2023-04-09T06:57:09.585Z,91.55
2023-04-09T06:59:37.204Z,92.23
2023-04-09T07:02:04.951Z,92.81
2023-04-09T07:04:32.929Z,92.95
2023-04-09T07:07:01.133Z,93.45
2023-04-09T07:09:28.906Z,91.68
2023-04-09T07:11:56.521Z,91.67
2023-04-09T07:14:25.550Z,92.51
2023-04-09T07:16:53.283Z,92.77
2023-04-09T07:19:21.093Z,91.41
2023-04-09T07:21:48.799Z,92.13
2023-04-09T07:24:16.432Z,91.74
2023-04-09T07:26:46.749Z,91.28
2023-04-09T07:29:14.632Z,90.74
2023-04-09T07:31:44.894Z,92.12
2023-04-09T07:34:12.727Z,92.80
2023-04-09T07:36:41.117Z,90.38
2023-04-09T07:39:08.828Z,93.79
2023-04-09T07:41:36.742Z,91.01
2023-04-09T07:44:06.275Z,91.29
2023-04-09T07:46:34.232Z,88.56
2023-04-09T07:49:03.363Z,91.71
2023-04-09T07:51:31.335Z,91.41
2023-04-09T07:53:59.083Z,91.78
2023-04-09T07:56:26.799Z,90.86
2023-04-09T07:58:54.514Z,90.29
2023-04-09T08:01:24.724Z,91.88
2023-04-09T08:03:52.704Z,90.09
2023-04-09T08:06:21.827Z,90.27
2023-04-09T08:08:49.543Z,90.73
2023-04-09T08:11:18.491Z,90.92
2023-04-09T08:13:46.243Z,89.82
2023-04-09T08:16:13.997Z,87.92
2023-04-09T08:18:41.676Z,89.49
2023-04-09T08:21:09.333Z,88.48
2023-04-09T08:23:38.741Z,88.10
2023-04-09T08:26:06.483Z,88.74
2023-04-09T08:28:34.142Z,88.13
2023-04-09T08:31:02.129Z,87.68
2023-04-09T08:33:30.330Z,87.55
2023-04-09T08:35:57.971Z,88.24
2023-04-09T08:38:26.018Z,87.30
2023-04-09T08:40:55.126Z,87.84
2023-04-09T08:43:26.990Z,88.23
2023-04-09T08:46:03.332Z,87.57
2023-04-09T08:48:31.183Z,88.76
2023-04-09T08:50:58.988Z,88.01
2023-04-09T08:53:27.476Z,87.37
2023-04-09T08:55:56.615Z,86.20
2023-04-09T08:58:24.411Z,85.81
2023-04-09T09:00:52.142Z,86.29
2023-04-09T09:03:19.941Z,85.90
2023-04-09T09:05:47.691Z,84.72
2023-04-09T09:08:15.723Z,84.74
2023-04-09T09:10:44.364Z,83.62
2023-04-09T09:13:21.276Z,84.20
2023-04-09T09:15:50.628Z,84.30
2023-04-09T09:18:18.708Z,82.84
2023-04-09T09:20:46.339Z,83.87
2023-04-09T09:23:13.996Z,82.85
2023-04-09T09:25:42.266Z,83.83
2023-04-09T09:28:10.492Z,82.56
2023-04-09T09:30:40.871Z,83.73
2023-04-09T09:33:09.165Z,84.13
2023-04-09T09:35:50.232Z,82.53
2023-04-09T09:38:18.308Z,83.89
2023-04-09T09:40:46.044Z,83.52
2023-04-09T09:43:14.730Z,83.82
2023-04-09T09:45:47.941Z,82.22
2023-04-09T09:48:16.389Z,81.57
2023-04-09T09:50:45.324Z,82.38
2023-04-09T09:53:13.249Z,80.59
2023-04-09T09:55:41.682Z,80.92
2023-04-09T09:58:13.584Z,82.02
2023-04-09T10:00:41.520Z,78.81
2023-04-09T10:03:13.436Z,79.97
2023-04-09T10:05:41.687Z,79.90
2023-04-09T10:08:09.333Z,79.50
2023-04-09T10:10:37.771Z,81.77
2023-04-09T10:13:07.655Z,80.86
2023-04-09T10:15:36.068Z,80.77
2023-04-09T10:18:03.896Z,80.23
2023-04-09T10:20:35.428Z,81.90
2023-04-09T10:23:04.475Z,81.56
2023-04-09T10:25:32.376Z,80.50
2023-04-09T10:28:03.371Z,80.94
2023-04-09T10:30:34.556Z,80.68
2023-04-09T10:33:12.319Z,78.59
2023-04-09T10:35:42.305Z,78.22
2023-04-09T10:38:10.738Z,79.27
2023-04-09T10:40:41.817Z,75.62
2023-04-09T10:43:10.002Z,74.70
2023-04-09T10:45:41.081Z,74.76
2023-04-09T10:48:12.423Z,74.53
2023-04-09T10:50:43.517Z,75.15
2023-04-09T10:53:22.484Z,70.95
2023-04-09T10:55:50.768Z,74.02
2023-04-09T10:58:18.487Z,74.75
2023-04-09T11:00:48.960Z,74.43
2023-04-09T11:03:24.311Z,75.94
2023-04-09T11:05:56.767Z,72.64
2023-04-09T11:08:24.522Z,72.45
2023-04-09T11:10:54.469Z,75.15
2023-04-09T11:13:22.179Z,70.86
2023-04-09T11:15:49.843Z,73.05
2023-04-09T11:18:23.972Z,66.20
2023-04-09T11:20:55.124Z,64.60
2023-04-09T11:23:24.765Z,64.52
2023-04-09T11:25:53.123Z,66.71
2023-04-09T11:28:21.419Z,64.60
2023-04-09T11:30:51.432Z,62.90
2023-04-09T11:33:20.249Z,63.60
2023-04-09T11:35:48.574Z,63.75
2023-04-09T11:38:16.343Z,66.49
2023-04-09T11:40:48.450Z,61.24
2023-04-09T11:43:17.055Z,60.39
2023-04-09T11:45:47.106Z,60.77
2023-04-09T11:48:15.245Z,59.93
2023-04-09T11:50:43.093Z,64.67
2023-04-09T11:53:17.169Z,60.25
2023-04-09T11:55:47.989Z,59.08
2023-04-09T11:58:15.747Z,60.59
2023-04-09T12:00:43.388Z,60.93
2023-04-09T12:03:11.967Z,58.38
2023-04-09T12:05:41.667Z,60.50
2023-04-09T12:08:10.901Z,59.91
2023-04-09T12:10:40.114Z,58.13
2023-04-09T12:13:10.984Z,58.29
2023-04-09T12:15:41.049Z,54.80
2023-04-09T12:18:09.581Z,51.82
2023-04-09T12:20:39.449Z,51.12
2023-04-09T12:23:08.435Z,51.43
2023-04-09T12:25:36.990Z,51.76
2023-04-09T12:28:05.022Z,52.13
2023-04-09T12:30:34.371Z,54.56
2023-04-09T12:33:02.345Z,56.88
2023-04-09T12:35:30.712Z,58.77
2023-04-09T12:37:59.409Z,61.04
2023-04-09T12:40:27.683Z,52.86
2023-04-09T12:42:55.436Z,55.99
2023-04-09T12:45:23.123Z,54.70
2023-04-09T12:47:52.939Z,61.17
2023-04-09T12:50:20.831Z,59.15
2023-04-09T12:52:48.585Z,57.94
2023-04-09T12:55:16.366Z,59.40
2023-04-09T12:57:44.874Z,55.80
2023-04-09T13:00:13.139Z,61.64
2023-04-09T13:05:10.454Z,57.22
2023-04-09T13:07:38.112Z,56.25
2023-04-09T13:10:06.176Z,58.60
2023-04-09T13:12:33.845Z,59.05
2023-04-09T13:15:01.565Z,60.27
2023-04-09T13:17:29.293Z,61.06
2023-04-09T13:19:56.892Z,56.28
2023-04-09T13:22:26.018Z,57.07
2023-04-09T13:24:53.752Z,61.12
2023-04-09T13:27:21.402Z,59.91
2023-04-09T13:29:49.057Z,56.54
2023-04-09T13:32:18.325Z,55.83
2023-04-09T13:34:46.107Z,55.63
2023-04-09T13:37:13.863Z,56.53
2023-04-09T13:39:43.001Z,58.30
2023-04-09T13:42:14.185Z,56.14
2023-04-09T13:44:44.969Z,55.55
2023-04-09T13:47:13.153Z,56.82
2023-04-09T13:49:40.882Z,58.55
2023-04-09T13:52:08.504Z,57.40
2023-04-09T13:54:36.324Z,55.21
2023-04-09T13:57:05.432Z,57.65
2023-04-09T13:59:33.131Z,54.90
2023-04-09T14:02:00.965Z,55.37
2023-04-09T14:04:28.776Z,60.30
2023-04-09T14:06:57.471Z,57.94
2023-04-09T14:09:25.169Z,59.69
2023-04-09T14:11:54.773Z,59.57
2023-04-09T14:14:23.873Z,59.43
2023-04-09T14:16:51.572Z,58.61
2023-04-09T14:19:19.245Z,59.89
2023-04-09T14:21:46.969Z,59.36
2023-04-09T14:24:14.620Z,58.67
2023-04-09T14:26:42.257Z,60.37
2023-04-09T14:29:09.907Z,58.20
2023-04-09T14:31:38.979Z,64.33
2023-04-09T14:34:06.766Z,61.94
2023-04-09T14:36:34.511Z,59.11
2023-04-09T14:39:02.157Z,58.25
2023-04-09T14:41:29.911Z,57.12
2023-04-09T14:43:57.562Z,58.27
2023-04-09T14:46:28.470Z,58.41
2023-04-09T14:48:57.449Z,58.72
2023-04-09T14:51:25.154Z,60.39
2023-04-09T14:53:52.931Z,60.67
2023-04-09T14:56:20.630Z,61.72
2023-04-09T14:58:48.344Z,62.49
2023-04-09T15:01:16.040Z,64.23
2023-04-09T15:03:44.914Z,65.63
2023-04-09T15:06:14.203Z,66.18
2023-04-09T15:08:41.911Z,63.91
2023-04-09T15:11:09.845Z,66.46
2023-04-09T15:13:37.515Z,66.59
2023-04-09T15:16:05.466Z,65.32
2023-04-09T15:18:34.484Z,64.45
2023-04-09T15:21:02.080Z,65.47
2023-04-09T15:23:35.503Z,67.60
2023-04-09T15:26:03.197Z,65.58
2023-04-09T15:28:30.997Z,66.77
2023-04-09T15:30:58.640Z,65.91
2023-04-09T15:33:27.286Z,63.08
2023-04-09T15:35:55.117Z,62.69
2023-04-09T15:38:25.141Z,63.97
2023-04-09T15:40:54.797Z,64.68
2023-04-09T15:43:23.302Z,66.30
2023-04-09T15:45:51.027Z,66.74
2023-04-09T15:48:19.267Z,66.86
2023-04-09T15:50:47.403Z,66.42
2023-04-09T15:53:16.030Z,67.02
2023-04-09T15:55:43.703Z,65.16
2023-04-09T15:58:12.807Z,66.33
2023-04-09T16:00:40.556Z,68.66
2023-04-09T16:03:08.326Z,68.90
2023-04-09T16:05:36.200Z,68.85
2023-04-09T16:08:03.956Z,70.72
2023-04-09T16:10:31.581Z,71.55
2023-04-09T16:12:59.247Z,69.99
2023-04-09T16:15:28.357Z,70.77
2023-04-09T16:17:56.716Z,69.87
2023-04-09T16:20:24.573Z,69.12
2023-04-09T16:22:52.275Z,70.05
2023-04-09T16:25:19.977Z,71.08
2023-04-09T16:27:47.625Z,71.42
2023-04-09T16:30:15.390Z,72.26
2023-04-09T16:32:44.516Z,70.89
2023-04-09T16:35:12.226Z,71.95
2023-04-09T16:37:39.937Z,70.71
2023-04-09T16:40:08.277Z,69.50
2023-04-09T16:42:36.764Z,68.68
2023-04-09T16:45:04.683Z,71.81
2023-04-09T16:47:32.703Z,72.29
2023-04-09T16:50:03.047Z,69.47
2023-04-09T16:52:30.714Z,71.58
2023-04-09T16:54:58.964Z,71.67
2023-04-09T16:57:26.588Z,73.12
2023-04-09T16:59:54.231Z,75.94
2023-04-09T17:02:23.935Z,75.94
2023-04-09T17:04:51.748Z,76.64
2023-04-09T17:07:21.894Z,77.06
2023-04-09T17:09:49.530Z,77.57
2023-04-09T17:12:21.253Z,77.47
2023-04-09T17:14:48.971Z,78.14
2023-04-09T17:17:17.128Z,78.35
2023-04-09T17:19:44.965Z,79.74
2023-04-09T17:22:13.915Z,79.25
2023-04-09T17:24:42.987Z,79.92
2023-04-09T17:27:11.036Z,80.11
2023-04-09T17:29:38.831Z,80.96
2023-04-09T17:32:06.687Z,81.75
2023-04-09T17:34:34.364Z,80.04
2023-04-09T17:37:02.072Z,80.56
2023-04-09T17:39:29.885Z,81.17
2023-04-09T17:42:00.591Z,80.64
2023-04-09T17:44:28.336Z,80.51
2023-04-09T17:46:56.228Z,80.87
2023-04-09T17:49:23.887Z,81.78
2023-04-09T17:51:51.722Z,83.31
2023-04-09T17:54:19.458Z,83.55
2023-04-09T17:56:47.073Z,83.99
2023-04-09T17:59:16.062Z,84.24
2023-04-09T18:01:43.818Z,84.87
2023-04-09T18:04:12.034Z,84.00
2023-04-09T18:06:39.815Z,84.54
2023-04-09T18:09:07.634Z,85.23
2023-04-09T18:11:35.361Z,85.98
2023-04-09T18:14:07.867Z,84.69
2023-04-09T18:16:38.248Z,83.85
2023-04-09T18:19:06.015Z,84.63
2023-04-09T18:21:36.371Z,84.91
2023-04-09T18:24:04.246Z,84.64
2023-04-09T18:26:33.826Z,85.16
2023-04-09T18:29:01.821Z,85.51
2023-04-09T18:31:29.622Z,84.55
2023-04-09T18:33:58.696Z,84.86
2023-04-09T18:36:28.298Z,85.99
2023-04-09T18:38:57.890Z,85.55
2023-04-09T18:41:26.035Z,86.05
2023-04-09T18:43:54.151Z,87.53
2023-04-09T18:46:22.896Z,87.03
2023-04-09T18:48:50.686Z,88.25
2023-04-09T18:51:20.872Z,87.67
2023-04-09T18:53:52.918Z,88.12
2023-04-09T18:56:21.159Z,88.21
2023-04-09T18:58:48.924Z,90.53
2023-04-09T19:01:17.581Z,90.52
2023-04-09T19:03:45.946Z,89.52
2023-04-09T19:06:14.662Z,89.59
2023-04-09T19:08:43.841Z,89.35
2023-04-09T19:11:12.606Z,90.39
2023-04-09T19:13:40.703Z,91.92
2023-04-09T19:16:09.730Z,93.72
2023-04-09T19:18:37.742Z,94.77
2023-04-09T19:21:06.500Z,95.54
2023-04-09T19:23:35.161Z,95.77
2023-04-09T19:26:05.417Z,95.90
2023-04-09T19:28:33.200Z,97.34
2023-04-09T19:31:03.252Z,97.64
2023-04-09T19:33:31.815Z,98.49
2023-04-09T19:35:59.710Z,97.39
2023-04-09T19:38:27.450Z,97.97
2023-04-09T19:40:55.138Z,98.23
2023-04-09T19:43:24.209Z,97.44
2023-04-09T19:45:51.903Z,97.22
2023-04-09T19:48:19.608Z,98.09
2023-04-09T19:50:48.420Z,97.49
2023-04-09T19:53:16.459Z,97.30
2023-04-09T19:55:44.744Z,97.17
2023-04-09T19:58:12.440Z,97.74
2023-04-09T20:00:41.692Z,97.75
2023-04-09T20:03:09.717Z,98.33
2023-04-09T20:05:37.545Z,98.87
2023-04-09T20:08:05.605Z,100.00
2023-04-09T20:10:33.322Z,100.00
2023-04-09T20:13:01.665Z,100.00
2023-04-09T20:15:29.467Z,100.00
2023-04-09T20:17:58.519Z,100.00
2023-04-09T20:20:26.267Z,100.00
2023-04-09T20:22:56.373Z,100.00
2023-04-09T20:25:24.576Z,100.00
2023-04-09T20:27:53.755Z,100.00
2023-04-09T20:30:21.626Z,100.00
2023-04-09T20:32:49.732Z,100.00
2023-04-09T20:35:18.990Z,100.00
2023-04-09T20:37:48.414Z,100.00
2023-04-09T20:40:16.417Z,100.00
2023-04-09T20:42:44.759Z,100.00
2023-04-09T20:45:12.586Z,100.00
2023-04-09T20:47:41.053Z,100.00
2023-04-09T20:50:09.118Z,100.00
2023-04-09T20:52:38.424Z,100.00
2023-04-09T20:55:06.592Z,100.00
2023-04-09T20:57:34.432Z,100.00
2023-04-09T21:00:02.147Z,100.00
2023-04-09T21:02:30.187Z,100.00
2023-04-09T21:05:03.338Z,100.00
2023-04-09T21:07:36.394Z,100.00
2023-04-09T21:10:05.772Z,100.00
2023-04-09T21:12:34.493Z,100.00
2023-04-09T21:15:02.235Z,100.00
2023-04-09T21:17:31.732Z,100.00
2023-04-09T21:19:59.520Z,100.00
2023-04-09T21:22:27.709Z,100.00
2023-04-09T21:24:58.592Z,100.00
2023-04-09T21:27:27.604Z,100.00
2023-04-09T21:29:55.330Z,100.00
2023-04-09T21:32:22.987Z,100.00
2023-04-09T21:34:50.691Z,100.00
2023-04-09T21:37:18.449Z,100.00
2023-04-09T21:39:48.157Z,100.00
2023-04-09T21:42:15.807Z,100.00
2023-04-09T21:44:44.839Z,100.00
2023-04-09T21:47:13.149Z,100.00
2023-04-09T21:49:40.872Z,100.00
2023-04-09T21:52:14.143Z,100.00
2023-04-09T21:54:42.285Z,100.00
2023-04-09T21:57:10.028Z,100.00
2023-04-09T21:59:37.909Z,100.00
2023-04-09T22:02:06.988Z,100.00
2023-04-09T22:04:35.805Z,100.00
2023-04-09T22:07:04.186Z,100.00
2023-04-09T22:09:32.010Z,100.00
2023-04-09T22:11:59.770Z,100.00
2023-04-09T22:14:29.410Z,100.00
2023-04-09T22:16:58.508Z,100.00
2023-04-09T22:19:28.197Z,100.00
2023-04-09T22:21:55.964Z,100.00
2023-04-09T22:24:27.137Z,100.00
2023-04-09T22:26:54.958Z,100.00
2023-04-09T22:29:22.633Z,100.00
2023-04-09T22:31:50.526Z,100.00
2023-04-09T22:34:21.292Z,100.00
2023-04-09T22:36:51.188Z,100.00
2023-04-09T22:39:19.082Z,100.00
2023-04-09T22:41:46.990Z,100.00
2023-04-09T22:44:14.636Z,100.00
2023-04-09T22:46:42.284Z,100.00
2023-04-09T22:49:12.401Z,100.00
2023-04-09T22:51:41.675Z,100.00
2023-04-09T22:54:11.205Z,100.00
2023-04-09T22:56:39.687Z,100.00
2023-04-09T22:59:07.434Z,100.00
2023-04-09T23:01:35.667Z,100.00
2023-04-09T23:04:03.409Z,100.00
2023-04-09T23:06:32.009Z,100.00
2023-04-09T23:09:00.039Z,100.00
2023-04-09T23:11:29.175Z,100.00
2023-04-09T23:13:56.832Z,100.00
2023-04-09T23:16:24.514Z,100.00
2023-04-09T23:18:52.527Z,100.00
2023-04-09T23:21:20.793Z,100.00
2023-04-09T23:23:48.461Z,100.00
2023-04-09T23:26:16.159Z,100.00
2023-04-09T23:28:45.264Z,100.00
2023-04-09T23:31:12.994Z,100.00
2023-04-09T23:33:40.625Z,100.00
2023-04-09T23:36:08.659Z,100.00
2023-04-09T23:38:36.324Z,100.00
2023-04-09T23:41:03.962Z,100.00
2023-04-09T23:43:31.592Z,100.00
2023-04-09T23:46:00.666Z,100.00
2023-04-09T23:48:28.355Z,100.00
2023-04-09T23:50:55.968Z,100.00
2023-04-09T23:53:23.600Z,100.00
2023-04-09T23:55:52.757Z,100.00
2023-04-09T23:58:21.385Z,100.00
